Rincon, PR (00677)

5:27 PM AST on August 03, 2015 (GMT -0400)
Barrio Puntas | | Change Station
CLOSE
Current Station
Personal Weather Station
Location: Rincon, PR
Elevation: 0 ft
Nearby Weather Stations

Elev 0 ft 18.37 °N, 67.25 °W | Updated 1 second ago

Scattered Clouds
Scattered Clouds
88.5 °F
Feels Like 103 °F
N
5.8
Wind Variable Wind from SW
Gusts 5.8 mph

Today
High -- | Low -- °F
--% Chance of Precip.
Yesterday
High -- | Low -- °F
Precip. -- in
6:07 AM 7:02 PM
Waning Gibbous, 84% visible
Pressure 29.97 in
Visibility 10.0 miles
Clouds Scattered Clouds 4800 ft
Heat Index 103 °F
Dew Point 78 °F
Humidity 72%
Rainfall 0.00 in
Snow Depth Not available.
UV 2 out of 12
Pollen Not available.
Air Quality Not available.
Flu Activity Not available.
METAR TJBQ 032050Z 10013G19KT 10SM SCT048 31/23 A2997 RMK RWY 08 ATIS Z

More Conditions Fewer Conditions

Pressure 29.97 in
Visibility 10.0 miles
Clouds Scattered Clouds 4800 ft
Heat Index 103 °F
Dew Point 78 °F
Humidity 72%
Rainfall 0.00 in
Snow Depth Not available.
UV 2 out of 12
Pollen Not available.
Air Quality Not available.
Flu Activity Not available.
METAR TJBQ 032050Z 10013G19KT 10SM SCT048 31/23 A2997 RMK RWY 08 ATIS Z

More Conditions Fewer Conditions

10-Day Weather Forecast

×

Almanac

Astronomy

Aug. 03, 2015 Rise Set
Actual Time
Civil Twilight
Nautical Twilight
Astronomical Twilight
Moon
Length of Visible Light
Length of Day
Tomorrow will be .
, % of the Moon is Illuminated

Today's Extremes

State Highs State Lows

Community

WunderPhotos

Upload Photos

1,843,770 photos uploaded!

WunderBlogs® & News

Nearby

Air Quality

  Air Quality AQ Index Pollutant
Not available.

Snow Depth

Station Depth Elevation

Earthquake Activity

City Distance Mag. Time & Date
Minimum magnitude displayed is 2.5.

Coastal Water Temperatures

Place Temperature

Stations

Nearby Weather Stations

Station Location Temp. Windchill Dew Point Humidity Wind Precip. Elev Updated Type